sensor_id;sensor_type;location;lat;lon;timestamp;temperature;humidity
25923;DHT22;13725;51.170;4.442;2023-12-04T00:01:19;2.40;99.90
25923;DHT22;13725;51.170;4.442;2023-12-04T00:03:45;2.30;99.90
25923;DHT22;13725;51.170;4.442;2023-12-04T00:06:11;2.40;99.90
25923;DHT22;13725;51.170;4.442;2023-12-04T00:08:37;2.40;99.90
25923;DHT22;13725;51.170;4.442;2023-12-04T00:11:04;2.40;99.90
25923;DHT22;13725;51.170;4.442;2023-12-04T00:13:30;2.50;99.90
25923;DHT22;13725;51.170;4.442;2023-12-04T00:15:56;2.40;99.90
25923;DHT22;13725;51.170;4.442;2023-12-04T00:18:22;2.40;99.90
25923;DHT22;13725;51.170;4.442;2023-12-04T00:20:48;2.50;99.90
25923;DHT22;13725;51.170;4.442;2023-12-04T00:23:14;2.40;99.90
25923;DHT22;13725;51.170;4.442;2023-12-04T00:25:39;2.40;99.90
25923;DHT22;13725;51.170;4.442;2023-12-04T00:28:05;2.60;99.90
25923;DHT22;13725;51.170;4.442;2023-12-04T00:30:31;2.40;99.90
25923;DHT22;13725;51.170;4.442;2023-12-04T00:32:57;2.60;99.90
25923;DHT22;13725;51.170;4.442;2023-12-04T00:35:23;2.30;99.90
25923;DHT22;13725;51.170;4.442;2023-12-04T00:37:49;2.50;99.90
25923;DHT22;13725;51.170;4.442;2023-12-04T00:40:15;2.40;99.90
25923;DHT22;13725;51.170;4.442;2023-12-04T00:42:41;2.40;99.90
25923;DHT22;13725;51.170;4.442;2023-12-04T00:45:07;2.40;99.90
25923;DHT22;13725;51.170;4.442;2023-12-04T00:47:33;2.40;99.90
25923;DHT22;13725;51.170;4.442;2023-12-04T00:49:59;2.30;99.90
25923;DHT22;13725;51.170;4.442;2023-12-04T00:52:25;2.50;99.90
25923;DHT22;13725;51.170;4.442;2023-12-04T00:54:50;2.30;99.90
25923;DHT22;13725;51.170;4.442;2023-12-04T00:57:16;2.30;99.90
25923;DHT22;13725;51.170;4.442;2023-12-04T00:59:42;2.40;99.90
25923;DHT22;13725;51.170;4.442;2023-12-04T01:02:08;2.20;99.90
25923;DHT22;13725;51.170;4.442;2023-12-04T01:04:35;2.40;99.90
25923;DHT22;13725;51.170;4.442;2023-12-04T01:07:01;2.30;99.90
25923;DHT22;13725;51.170;4.442;2023-12-04T01:09:27;2.10;99.90
25923;DHT22;13725;51.170;4.442;2023-12-04T01:11:53;2.10;99.90
25923;DHT22;13725;51.170;4.442;2023-12-04T01:14:20;2.10;99.90
25923;DHT22;13725;51.170;4.442;2023-12-04T01:16:46;2.10;99.90
25923;DHT22;13725;51.170;4.442;2023-12-04T01:19:12;2.30;99.90
25923;DHT22;13725;51.170;4.442;2023-12-04T01:21:38;2.30;99.90
25923;DHT22;13725;51.170;4.442;2023-12-04T01:24:04;2.10;99.90
25923;DHT22;13725;51.170;4.442;2023-12-04T01:26:30;2.10;99.90
25923;DHT22;13725;51.170;4.442;2023-12-04T01:28:56;2.30;99.90
25923;DHT22;13725;51.170;4.442;2023-12-04T01:31:21;2.10;99.90
25923;DHT22;13725;51.170;4.442;2023-12-04T01:33:47;2.10;99.90
25923;DHT22;13725;51.170;4.442;2023-12-04T01:36:13;2.10;99.90
25923;DHT22;13725;51.170;4.442;2023-12-04T01:38:39;2.10;99.90
25923;DHT22;13725;51.170;4.442;2023-12-04T01:41:05;2.20;99.90
25923;DHT22;13725;51.170;4.442;2023-12-04T01:43:31;2.00;99.90
25923;DHT22;13725;51.170;4.442;2023-12-04T01:45:57;2.30;99.90
25923;DHT22;13725;51.170;4.442;2023-12-04T01:48:26;2.30;99.90
25923;DHT22;13725;51.170;4.442;2023-12-04T01:50:52;2.10;99.90
25923;DHT22;13725;51.170;4.442;2023-12-04T01:53:19;2.20;99.90
25923;DHT22;13725;51.170;4.442;2023-12-04T01:55:45;2.10;99.90
25923;DHT22;13725;51.170;4.442;2023-12-04T01:58:12;2.20;99.90
25923;DHT22;13725;51.170;4.442;2023-12-04T02:00:38;2.30;99.90
25923;DHT22;13725;51.170;4.442;2023-12-04T02:03:05;2.30;99.90
25923;DHT22;13725;51.170;4.442;2023-12-04T02:05:32;2.20;99.90
25923;DHT22;13725;51.170;4.442;2023-12-04T02:07:59;2.20;99.90
25923;DHT22;13725;51.170;4.442;2023-12-04T02:10:25;2.20;99.90
25923;DHT22;13725;51.170;4.442;2023-12-04T02:12:51;2.20;99.90
25923;DHT22;13725;51.170;4.442;2023-12-04T02:15:18;2.30;99.90
25923;DHT22;13725;51.170;4.442;2023-12-04T02:17:44;2.30;99.90
25923;DHT22;13725;51.170;4.442;2023-12-04T02:20:13;2.30;99.90
25923;DHT22;13725;51.170;4.442;2023-12-04T02:22:38;2.40;99.90
25923;DHT22;13725;51.170;4.442;2023-12-04T02:25:05;2.30;99.90
25923;DHT22;13725;51.170;4.442;2023-12-04T02:27:47;2.30;99.90
25923;DHT22;13725;51.170;4.442;2023-12-04T02:30:17;2.30;99.90
25923;DHT22;13725;51.170;4.442;2023-12-04T02:32:46;2.40;99.90
25923;DHT22;13725;51.170;4.442;2023-12-04T02:38:59;2.30;99.90
25923;DHT22;13725;51.170;4.442;2023-12-04T02:41:26;2.30;99.90
25923;DHT22;13725;51.170;4.442;2023-12-04T02:43:54;2.30;99.90
25923;DHT22;13725;51.170;4.442;2023-12-04T02:46:20;2.20;99.90
25923;DHT22;13725;51.170;4.442;2023-12-04T02:48:46;2.30;99.90
25923;DHT22;13725;51.170;4.442;2023-12-04T02:51:12;2.20;99.90
25923;DHT22;13725;51.170;4.442;2023-12-04T02:53:38;2.30;99.90
25923;DHT22;13725;51.170;4.442;2023-12-04T02:56:04;2.30;99.90
25923;DHT22;13725;51.170;4.442;2023-12-04T02:58:29;2.30;99.90
25923;DHT22;13725;51.170;4.442;2023-12-04T03:00:55;2.50;99.90
25923;DHT22;13725;51.170;4.442;2023-12-04T03:03:21;2.30;99.90
25923;DHT22;13725;51.170;4.442;2023-12-04T03:05:47;2.60;99.90
25923;DHT22;13725;51.170;4.442;2023-12-04T03:08:13;2.30;99.90
25923;DHT22;13725;51.170;4.442;2023-12-04T03:10:39;2.30;99.90
25923;DHT22;13725;51.170;4.442;2023-12-04T03:13:05;2.30;99.90
25923;DHT22;13725;51.170;4.442;2023-12-04T03:15:31;2.30;99.90
25923;DHT22;13725;51.170;4.442;2023-12-04T03:17:59;2.50;99.90
25923;DHT22;13725;51.170;4.442;2023-12-04T03:20:26;2.30;99.90
25923;DHT22;13725;51.170;4.442;2023-12-04T03:22:52;2.40;99.90
25923;DHT22;13725;51.170;4.442;2023-12-04T03:25:17;2.50;99.90
25923;DHT22;13725;51.170;4.442;2023-12-04T03:27:43;2.40;99.90
25923;DHT22;13725;51.170;4.442;2023-12-04T03:30:09;2.50;99.90
25923;DHT22;13725;51.170;4.442;2023-12-04T03:32:35;2.50;99.90
25923;DHT22;13725;51.170;4.442;2023-12-04T03:35:01;2.70;99.90
25923;DHT22;13725;51.170;4.442;2023-12-04T03:37:27;2.50;99.90
25923;DHT22;13725;51.170;4.442;2023-12-04T03:39:53;2.50;99.90
25923;DHT22;13725;51.170;4.442;2023-12-04T03:42:18;2.40;99.90
25923;DHT22;13725;51.170;4.442;2023-12-04T03:44:44;2.40;99.90
25923;DHT22;13725;51.170;4.442;2023-12-04T03:47:11;2.40;99.90
25923;DHT22;13725;51.170;4.442;2023-12-04T03:49:37;2.40;99.90
25923;DHT22;13725;51.170;4.442;2023-12-04T03:52:04;2.50;99.90
25923;DHT22;13725;51.170;4.442;2023-12-04T03:54:30;2.40;99.90
25923;DHT22;13725;51.170;4.442;2023-12-04T03:56:56;2.40;99.90
25923;DHT22;13725;51.170;4.442;2023-12-04T03:59:22;2.50;99.90
25923;DHT22;13725;51.170;4.442;2023-12-04T04:01:47;2.40;99.90
25923;DHT22;13725;51.170;4.442;2023-12-04T04:04:13;2.40;99.90
25923;DHT22;13725;51.170;4.442;2023-12-04T04:06:39;2.70;99.90
25923;DHT22;13725;51.170;4.442;2023-12-04T04:09:05;2.50;99.90
25923;DHT22;13725;51.170;4.442;2023-12-04T04:11:31;2.70;99.90
25923;DHT22;13725;51.170;4.442;2023-12-04T04:13:57;2.60;99.90
25923;DHT22;13725;51.170;4.442;2023-12-04T04:16:23;2.50;99.90
25923;DHT22;13725;51.170;4.442;2023-12-04T04:18:50;2.60;99.90
25923;DHT22;13725;51.170;4.442;2023-12-04T04:21:16;2.60;99.90
25923;DHT22;13725;51.170;4.442;2023-12-04T04:23:42;2.60;99.90
25923;DHT22;13725;51.170;4.442;2023-12-04T04:26:08;2.50;99.90
25923;DHT22;13725;51.170;4.442;2023-12-04T04:28:33;2.50;99.90
25923;DHT22;13725;51.170;4.442;2023-12-04T04:30:59;2.50;99.90
25923;DHT22;13725;51.170;4.442;2023-12-04T04:33:25;2.70;99.90
25923;DHT22;13725;51.170;4.442;2023-12-04T04:35:50;2.60;99.90
25923;DHT22;13725;51.170;4.442;2023-12-04T04:38:16;2.60;99.90
25923;DHT22;13725;51.170;4.442;2023-12-04T04:40:42;2.60;99.90
25923;DHT22;13725;51.170;4.442;2023-12-04T04:43:10;2.70;99.90
25923;DHT22;13725;51.170;4.442;2023-12-04T04:45:36;2.70;99.90
25923;DHT22;13725;51.170;4.442;2023-12-04T04:48:01;2.80;99.90
25923;DHT22;13725;51.170;4.442;2023-12-04T04:50:27;2.60;99.90
25923;DHT22;13725;51.170;4.442;2023-12-04T04:52:53;2.70;99.90
25923;DHT22;13725;51.170;4.442;2023-12-04T04:55:19;2.70;99.90
25923;DHT22;13725;51.170;4.442;2023-12-04T04:57:45;2.80;99.90
25923;DHT22;13725;51.170;4.442;2023-12-04T05:00:11;2.70;99.90
25923;DHT22;13725;51.170;4.442;2023-12-04T05:02:37;2.70;99.90
25923;DHT22;13725;51.170;4.442;2023-12-04T05:05:03;2.70;99.90
25923;DHT22;13725;51.170;4.442;2023-12-04T05:07:30;2.80;99.90
25923;DHT22;13725;51.170;4.442;2023-12-04T05:09:55;2.80;99.90
25923;DHT22;13725;51.170;4.442;2023-12-04T05:12:21;2.70;99.90
25923;DHT22;13725;51.170;4.442;2023-12-04T05:14:48;2.80;99.90
25923;DHT22;13725;51.170;4.442;2023-12-04T05:17:14;2.90;99.90
25923;DHT22;13725;51.170;4.442;2023-12-04T05:19:39;2.80;99.90
25923;DHT22;13725;51.170;4.442;2023-12-04T05:22:06;3.00;99.90
25923;DHT22;13725;51.170;4.442;2023-12-04T05:24:32;2.90;99.90
25923;DHT22;13725;51.170;4.442;2023-12-04T05:26:58;2.90;99.90
25923;DHT22;13725;51.170;4.442;2023-12-04T05:29:24;2.90;99.90
25923;DHT22;13725;51.170;4.442;2023-12-04T05:35:38;2.90;99.90
25923;DHT22;13725;51.170;4.442;2023-12-04T05:38:04;2.80;99.90
25923;DHT22;13725;51.170;4.442;2023-12-04T05:40:29;2.90;99.90
25923;DHT22;13725;51.170;4.442;2023-12-04T05:42:55;3.00;99.90
25923;DHT22;13725;51.170;4.442;2023-12-04T05:45:21;3.10;99.90
25923;DHT22;13725;51.170;4.442;2023-12-04T05:47:46;2.90;99.90
25923;DHT22;13725;51.170;4.442;2023-12-04T05:50:12;2.90;99.90
25923;DHT22;13725;51.170;4.442;2023-12-04T05:52:38;2.80;99.90
25923;DHT22;13725;51.170;4.442;2023-12-04T05:55:04;2.80;99.90
25923;DHT22;13725;51.170;4.442;2023-12-04T05:57:30;2.80;99.90
25923;DHT22;13725;51.170;4.442;2023-12-04T05:59:56;2.80;99.90
25923;DHT22;13725;51.170;4.442;2023-12-04T06:02:22;2.70;99.90
25923;DHT22;13725;51.170;4.442;2023-12-04T06:04:47;2.90;99.90
25923;DHT22;13725;51.170;4.442;2023-12-04T06:07:13;2.90;99.90
25923;DHT22;13725;51.170;4.442;2023-12-04T06:09:39;2.90;99.90
25923;DHT22;13725;51.170;4.442;2023-12-04T06:12:05;2.90;99.90
25923;DHT22;13725;51.170;4.442;2023-12-04T06:14:34;2.80;99.90
25923;DHT22;13725;51.170;4.442;2023-12-04T06:17:00;2.80;99.90
25923;DHT22;13725;51.170;4.442;2023-12-04T06:19:27;2.90;99.90
25923;DHT22;13725;51.170;4.442;2023-12-04T06:21:54;2.90;99.90
25923;DHT22;13725;51.170;4.442;2023-12-04T06:24:21;3.00;99.90
25923;DHT22;13725;51.170;4.442;2023-12-04T06:26:50;2.80;99.90
25923;DHT22;13725;51.170;4.442;2023-12-04T06:29:16;2.80;99.90
25923;DHT22;13725;51.170;4.442;2023-12-04T06:31:42;2.70;99.90
25923;DHT22;13725;51.170;4.442;2023-12-04T06:34:08;2.70;99.90
25923;DHT22;13725;51.170;4.442;2023-12-04T06:36:38;2.80;99.90
25923;DHT22;13725;51.170;4.442;2023-12-04T06:39:10;2.70;99.90
25923;DHT22;13725;51.170;4.442;2023-12-04T06:41:37;2.50;99.90
25923;DHT22;13725;51.170;4.442;2023-12-04T06:44:04;2.60;99.90
25923;DHT22;13725;51.170;4.442;2023-12-04T06:46:30;2.60;99.90
25923;DHT22;13725;51.170;4.442;2023-12-04T06:48:59;2.80;99.90
25923;DHT22;13725;51.170;4.442;2023-12-04T06:51:25;2.70;99.90
25923;DHT22;13725;51.170;4.442;2023-12-04T06:53:51;2.70;99.90
25923;DHT22;13725;51.170;4.442;2023-12-04T06:56:17;2.60;99.90
25923;DHT22;13725;51.170;4.442;2023-12-04T06:58:43;2.70;99.90
25923;DHT22;13725;51.170;4.442;2023-12-04T07:01:09;2.70;99.90
25923;DHT22;13725;51.170;4.442;2023-12-04T07:03:34;2.50;99.90
25923;DHT22;13725;51.170;4.442;2023-12-04T07:06:01;2.80;99.90
25923;DHT22;13725;51.170;4.442;2023-12-04T07:08:27;2.60;99.90
25923;DHT22;13725;51.170;4.442;2023-12-04T07:10:52;2.70;99.90
25923;DHT22;13725;51.170;4.442;2023-12-04T07:13:20;2.70;99.90
25923;DHT22;13725;51.170;4.442;2023-12-04T07:15:46;2.80;99.90
25923;DHT22;13725;51.170;4.442;2023-12-04T07:18:12;2.80;99.90
25923;DHT22;13725;51.170;4.442;2023-12-04T07:20:38;2.70;99.90
25923;DHT22;13725;51.170;4.442;2023-12-04T07:23:03;2.80;99.90
25923;DHT22;13725;51.170;4.442;2023-12-04T07:25:29;2.70;99.90
25923;DHT22;13725;51.170;4.442;2023-12-04T07:27:55;2.70;99.90
25923;DHT22;13725;51.170;4.442;2023-12-04T07:30:20;2.70;99.90
25923;DHT22;13725;51.170;4.442;2023-12-04T07:32:47;2.70;99.90
25923;DHT22;13725;51.170;4.442;2023-12-04T07:35:14;3.00;99.90
25923;DHT22;13725;51.170;4.442;2023-12-04T07:37:41;2.90;99.90
25923;DHT22;13725;51.170;4.442;2023-12-04T07:40:14;3.00;99.90
25923;DHT22;13725;51.170;4.442;2023-12-04T07:42:43;3.00;99.90
25923;DHT22;13725;51.170;4.442;2023-12-04T07:45:09;3.10;99.90
25923;DHT22;13725;51.170;4.442;2023-12-04T07:47:36;2.90;99.90
25923;DHT22;13725;51.170;4.442;2023-12-04T07:50:03;3.00;99.90
25923;DHT22;13725;51.170;4.442;2023-12-04T07:52:30;2.90;99.90
25923;DHT22;13725;51.170;4.442;2023-12-04T07:54:58;3.00;99.90
25923;DHT22;13725;51.170;4.442;2023-12-04T07:57:23;3.00;99.90
25923;DHT22;13725;51.170;4.442;2023-12-04T07:59:49;3.10;99.90
25923;DHT22;13725;51.170;4.442;2023-12-04T08:02:15;3.10;99.90
25923;DHT22;13725;51.170;4.442;2023-12-04T08:04:41;3.00;99.90
25923;DHT22;13725;51.170;4.442;2023-12-04T08:07:07;3.10;99.90
25923;DHT22;13725;51.170;4.442;2023-12-04T08:09:33;3.00;99.90
25923;DHT22;13725;51.170;4.442;2023-12-04T08:12:02;3.10;99.90
25923;DHT22;13725;51.170;4.442;2023-12-04T08:14:28;3.10;99.90
25923;DHT22;13725;51.170;4.442;2023-12-04T08:16:53;3.20;99.90
25923;DHT22;13725;51.170;4.442;2023-12-04T08:19:19;3.20;99.90
25923;DHT22;13725;51.170;4.442;2023-12-04T08:21:45;3.40;99.90
25923;DHT22;13725;51.170;4.442;2023-12-04T08:24:12;3.50;99.90
25923;DHT22;13725;51.170;4.442;2023-12-04T08:27:11;3.30;99.90
25923;DHT22;13725;51.170;4.442;2023-12-04T08:33:25;3.40;99.90
25923;DHT22;13725;51.170;4.442;2023-12-04T08:35:51;3.30;99.90
25923;DHT22;13725;51.170;4.442;2023-12-04T08:38:16;3.40;99.90
25923;DHT22;13725;51.170;4.442;2023-12-04T08:40:42;3.30;99.90
25923;DHT22;13725;51.170;4.442;2023-12-04T08:43:08;3.30;99.90
25923;DHT22;13725;51.170;4.442;2023-12-04T08:45:34;3.30;99.90
25923;DHT22;13725;51.170;4.442;2023-12-04T08:47:59;3.30;99.90
25923;DHT22;13725;51.170;4.442;2023-12-04T08:50:25;3.30;99.90
25923;DHT22;13725;51.170;4.442;2023-12-04T08:52:52;3.30;99.90
25923;DHT22;13725;51.170;4.442;2023-12-04T08:55:18;3.40;99.90
25923;DHT22;13725;51.170;4.442;2023-12-04T08:57:44;3.40;99.90
25923;DHT22;13725;51.170;4.442;2023-12-04T09:00:10;3.40;99.90
25923;DHT22;13725;51.170;4.442;2023-12-04T09:02:36;3.30;99.90
25923;DHT22;13725;51.170;4.442;2023-12-04T09:05:02;3.50;99.90
25923;DHT22;13725;51.170;4.442;2023-12-04T09:07:28;3.30;99.90
25923;DHT22;13725;51.170;4.442;2023-12-04T09:09:54;3.20;99.90
25923;DHT22;13725;51.170;4.442;2023-12-04T09:12:21;3.20;99.90
25923;DHT22;13725;51.170;4.442;2023-12-04T09:14:47;3.30;99.90
25923;DHT22;13725;51.170;4.442;2023-12-04T09:17:13;3.20;99.90
25923;DHT22;13725;51.170;4.442;2023-12-04T09:19:39;3.50;99.90
25923;DHT22;13725;51.170;4.442;2023-12-04T09:22:05;3.40;99.90
25923;DHT22;13725;51.170;4.442;2023-12-04T09:24:30;3.50;99.90
25923;DHT22;13725;51.170;4.442;2023-12-04T09:26:56;3.50;99.90
25923;DHT22;13725;51.170;4.442;2023-12-04T09:29:22;3.60;99.90
25923;DHT22;13725;51.170;4.442;2023-12-04T09:31:51;3.50;99.90
25923;DHT22;13725;51.170;4.442;2023-12-04T09:34:17;3.50;99.90
25923;DHT22;13725;51.170;4.442;2023-12-04T09:36:43;3.50;99.90
25923;DHT22;13725;51.170;4.442;2023-12-04T09:39:10;3.50;99.90
25923;DHT22;13725;51.170;4.442;2023-12-04T09:41:37;3.50;99.90
25923;DHT22;13725;51.170;4.442;2023-12-04T09:44:04;3.60;99.90
25923;DHT22;13725;51.170;4.442;2023-12-04T09:46:31;3.70;99.90
25923;DHT22;13725;51.170;4.442;2023-12-04T09:48:57;3.60;99.90
25923;DHT22;13725;51.170;4.442;2023-12-04T09:51:23;3.50;99.90
25923;DHT22;13725;51.170;4.442;2023-12-04T09:53:51;3.60;99.90
25923;DHT22;13725;51.170;4.442;2023-12-04T09:56:18;3.70;99.90
25923;DHT22;13725;51.170;4.442;2023-12-04T09:58:45;3.70;99.90
25923;DHT22;13725;51.170;4.442;2023-12-04T10:01:12;3.50;99.90
25923;DHT22;13725;51.170;4.442;2023-12-04T10:03:38;3.50;99.90
25923;DHT22;13725;51.170;4.442;2023-12-04T10:06:06;3.50;99.90
25923;DHT22;13725;51.170;4.442;2023-12-04T10:08:33;3.50;99.90
25923;DHT22;13725;51.170;4.442;2023-12-04T10:10:58;3.50;99.90
25923;DHT22;13725;51.170;4.442;2023-12-04T10:13:25;3.60;99.90
25923;DHT22;13725;51.170;4.442;2023-12-04T10:15:52;3.60;99.90
25923;DHT22;13725;51.170;4.442;2023-12-04T10:18:29;3.40;99.90
25923;DHT22;13725;51.170;4.442;2023-12-04T10:20:56;3.40;99.90
25923;DHT22;13725;51.170;4.442;2023-12-04T10:23:23;3.30;99.90
25923;DHT22;13725;51.170;4.442;2023-12-04T10:25:49;3.40;99.90
25923;DHT22;13725;51.170;4.442;2023-12-04T10:28:17;3.30;99.90
25923;DHT22;13725;51.170;4.442;2023-12-04T10:30:43;3.30;99.90
25923;DHT22;13725;51.170;4.442;2023-12-04T10:33:09;3.30;99.90
25923;DHT22;13725;51.170;4.442;2023-12-04T10:35:36;3.50;99.90
25923;DHT22;13725;51.170;4.442;2023-12-04T10:38:03;3.40;99.90
25923;DHT22;13725;51.170;4.442;2023-12-04T10:40:30;3.40;99.90
25923;DHT22;13725;51.170;4.442;2023-12-04T10:43:18;3.40;99.90
25923;DHT22;13725;51.170;4.442;2023-12-04T10:45:47;3.40;99.90
25923;DHT22;13725;51.170;4.442;2023-12-04T10:48:15;3.50;99.90
25923;DHT22;13725;51.170;4.442;2023-12-04T10:50:43;3.40;99.90
25923;DHT22;13725;51.170;4.442;2023-12-04T10:53:11;3.40;99.90
25923;DHT22;13725;51.170;4.442;2023-12-04T10:55:38;3.40;99.90
25923;DHT22;13725;51.170;4.442;2023-12-04T10:58:13;3.60;99.90
25923;DHT22;13725;51.170;4.442;2023-12-04T11:00:44;3.50;99.90
25923;DHT22;13725;51.170;4.442;2023-12-04T11:03:16;3.60;99.90
25923;DHT22;13725;51.170;4.442;2023-12-04T11:05:45;3.70;99.90
25923;DHT22;13725;51.170;4.442;2023-12-04T11:08:15;3.80;99.90
25923;DHT22;13725;51.170;4.442;2023-12-04T11:10:48;3.60;99.90
25923;DHT22;13725;51.170;4.442;2023-12-04T11:13:22;3.50;99.90
25923;DHT22;13725;51.170;4.442;2023-12-04T11:15:51;3.50;99.90
25923;DHT22;13725;51.170;4.442;2023-12-04T11:18:21;3.60;99.90
25923;DHT22;13725;51.170;4.442;2023-12-04T11:20:53;3.40;99.90
25923;DHT22;13725;51.170;4.442;2023-12-04T11:23:40;3.40;99.90
25923;DHT22;13725;51.170;4.442;2023-12-04T11:26:16;3.50;99.90
25923;DHT22;13725;51.170;4.442;2023-12-04T11:28:44;3.20;99.90
25923;DHT22;13725;51.170;4.442;2023-12-04T11:31:12;3.20;99.90
25923;DHT22;13725;51.170;4.442;2023-12-04T11:33:38;3.40;99.90
25923;DHT22;13725;51.170;4.442;2023-12-04T11:36:11;3.50;99.90
25923;DHT22;13725;51.170;4.442;2023-12-04T11:38:44;3.40;99.90
25923;DHT22;13725;51.170;4.442;2023-12-04T11:41:30;3.30;99.90
25923;DHT22;13725;51.170;4.442;2023-12-04T11:43:57;3.30;99.90
25923;DHT22;13725;51.170;4.442;2023-12-04T11:46:25;3.30;99.90
25923;DHT22;13725;51.170;4.442;2023-12-04T11:48:54;3.30;99.90
25923;DHT22;13725;51.170;4.442;2023-12-04T11:54:17;3.30;99.90
25923;DHT22;13725;51.170;4.442;2023-12-04T11:59:26;3.30;99.90
25923;DHT22;13725;51.170;4.442;2023-12-04T12:01:55;3.40;99.90
25923;DHT22;13725;51.170;4.442;2023-12-04T12:04:22;3.40;99.90
25923;DHT22;13725;51.170;4.442;2023-12-04T12:06:49;3.40;99.90
25923;DHT22;13725;51.170;4.442;2023-12-04T12:09:15;3.40;99.90
25923;DHT22;13725;51.170;4.442;2023-12-04T12:11:42;3.50;99.90
25923;DHT22;13725;51.170;4.442;2023-12-04T12:14:08;3.40;99.90
25923;DHT22;13725;51.170;4.442;2023-12-04T12:16:34;3.40;99.90
25923;DHT22;13725;51.170;4.442;2023-12-04T12:19:01;3.40;99.90
25923;DHT22;13725;51.170;4.442;2023-12-04T12:21:27;3.40;99.90
25923;DHT22;13725;51.170;4.442;2023-12-04T12:23:54;3.40;99.90
25923;DHT22;13725;51.170;4.442;2023-12-04T12:26:20;3.50;99.90
25923;DHT22;13725;51.170;4.442;2023-12-04T12:28:47;3.40;99.90
25923;DHT22;13725;51.170;4.442;2023-12-04T12:31:14;3.50;99.90
25923;DHT22;13725;51.170;4.442;2023-12-04T12:33:40;3.50;99.90
25923;DHT22;13725;51.170;4.442;2023-12-04T12:36:06;3.70;99.90
25923;DHT22;13725;51.170;4.442;2023-12-04T12:38:32;3.70;99.90
25923;DHT22;13725;51.170;4.442;2023-12-04T12:41:06;3.60;99.90
25923;DHT22;13725;51.170;4.442;2023-12-04T12:43:33;3.70;99.90
25923;DHT22;13725;51.170;4.442;2023-12-04T12:45:59;3.70;99.90
25923;DHT22;13725;51.170;4.442;2023-12-04T12:48:27;3.70;99.90
25923;DHT22;13725;51.170;4.442;2023-12-04T12:50:55;3.70;99.90
25923;DHT22;13725;51.170;4.442;2023-12-04T12:53:20;3.60;99.90
25923;DHT22;13725;51.170;4.442;2023-12-04T12:55:47;3.80;99.90
25923;DHT22;13725;51.170;4.442;2023-12-04T12:58:14;3.70;99.90
25923;DHT22;13725;51.170;4.442;2023-12-04T13:00:43;3.80;99.90
25923;DHT22;13725;51.170;4.442;2023-12-04T13:03:18;3.80;99.90
25923;DHT22;13725;51.170;4.442;2023-12-04T13:05:44;3.80;99.90
25923;DHT22;13725;51.170;4.442;2023-12-04T13:08:10;3.80;99.90
25923;DHT22;13725;51.170;4.442;2023-12-04T13:10:41;3.70;99.90
25923;DHT22;13725;51.170;4.442;2023-12-04T13:13:14;3.70;99.90
25923;DHT22;13725;51.170;4.442;2023-12-04T13:15:41;3.70;99.90
25923;DHT22;13725;51.170;4.442;2023-12-04T13:18:08;3.60;99.90
25923;DHT22;13725;51.170;4.442;2023-12-04T13:20:34;3.70;99.90
25923;DHT22;13725;51.170;4.442;2023-12-04T13:23:00;3.70;99.90
25923;DHT22;13725;51.170;4.442;2023-12-04T13:25:26;3.70;99.90
25923;DHT22;13725;51.170;4.442;2023-12-04T13:27:53;3.70;99.90
25923;DHT22;13725;51.170;4.442;2023-12-04T13:30:19;3.70;99.90
25923;DHT22;13725;51.170;4.442;2023-12-04T13:32:45;3.60;99.90
25923;DHT22;13725;51.170;4.442;2023-12-04T13:35:11;3.60;99.90
25923;DHT22;13725;51.170;4.442;2023-12-04T13:37:38;3.60;99.90
25923;DHT22;13725;51.170;4.442;2023-12-04T13:40:06;3.60;99.90
25923;DHT22;13725;51.170;4.442;2023-12-04T13:42:34;3.60;99.90
25923;DHT22;13725;51.170;4.442;2023-12-04T13:45:19;3.60;99.90
25923;DHT22;13725;51.170;4.442;2023-12-04T13:47:49;3.60;99.90
25923;DHT22;13725;51.170;4.442;2023-12-04T13:50:15;3.50;99.90
25923;DHT22;13725;51.170;4.442;2023-12-04T13:52:41;3.60;99.90
25923;DHT22;13725;51.170;4.442;2023-12-04T13:55:09;3.50;99.90
25923;DHT22;13725;51.170;4.442;2023-12-04T13:57:46;3.40;99.90
25923;DHT22;13725;51.170;4.442;2023-12-04T14:00:32;3.50;99.90
25923;DHT22;13725;51.170;4.442;2023-12-04T14:02:57;3.70;99.90
25923;DHT22;13725;51.170;4.442;2023-12-04T14:05:31;3.50;99.90
25923;DHT22;13725;51.170;4.442;2023-12-04T14:07:58;3.50;99.90
25923;DHT22;13725;51.170;4.442;2023-12-04T14:10:25;3.40;99.90
25923;DHT22;13725;51.170;4.442;2023-12-04T14:12:54;3.50;99.90
25923;DHT22;13725;51.170;4.442;2023-12-04T14:15:20;3.40;99.90
25923;DHT22;13725;51.170;4.442;2023-12-04T14:22:09;3.30;99.90
25923;DHT22;13725;51.170;4.442;2023-12-04T14:24:35;3.40;99.90
25923;DHT22;13725;51.170;4.442;2023-12-04T14:27:01;3.30;99.90
25923;DHT22;13725;51.170;4.442;2023-12-04T14:29:27;3.40;99.90
25923;DHT22;13725;51.170;4.442;2023-12-04T14:31:52;3.20;99.90
25923;DHT22;13725;51.170;4.442;2023-12-04T14:34:18;3.20;99.90
25923;DHT22;13725;51.170;4.442;2023-12-04T14:36:44;3.30;99.90
25923;DHT22;13725;51.170;4.442;2023-12-04T14:39:10;3.30;99.90
25923;DHT22;13725;51.170;4.442;2023-12-04T14:41:37;3.30;99.90
25923;DHT22;13725;51.170;4.442;2023-12-04T14:44:03;3.30;99.90
25923;DHT22;13725;51.170;4.442;2023-12-04T14:46:29;3.30;99.90
25923;DHT22;13725;51.170;4.442;2023-12-04T14:48:55;3.30;99.90
25923;DHT22;13725;51.170;4.442;2023-12-04T14:51:20;3.30;99.90
25923;DHT22;13725;51.170;4.442;2023-12-04T14:53:46;3.30;99.90
25923;DHT22;13725;51.170;4.442;2023-12-04T14:56:17;3.30;99.90
25923;DHT22;13725;51.170;4.442;2023-12-04T14:58:51;3.30;99.90
25923;DHT22;13725;51.170;4.442;2023-12-04T15:01:20;3.40;99.90
25923;DHT22;13725;51.170;4.442;2023-12-04T15:03:55;3.50;99.90
25923;DHT22;13725;51.170;4.442;2023-12-04T15:06:40;3.70;99.90
25923;DHT22;13725;51.170;4.442;2023-12-04T15:09:24;3.70;99.90
25923;DHT22;13725;51.170;4.442;2023-12-04T15:12:10;3.60;99.90
25923;DHT22;13725;51.170;4.442;2023-12-04T15:14:44;3.60;99.90
25923;DHT22;13725;51.170;4.442;2023-12-04T15:17:39;3.70;99.90
25923;DHT22;13725;51.170;4.442;2023-12-04T15:20:18;3.80;99.90
25923;DHT22;13725;51.170;4.442;2023-12-04T15:22:44;3.70;99.90
25923;DHT22;13725;51.170;4.442;2023-12-04T15:25:10;3.70;99.90
25923;DHT22;13725;51.170;4.442;2023-12-04T15:27:38;3.70;99.90
25923;DHT22;13725;51.170;4.442;2023-12-04T15:30:04;3.70;99.90
25923;DHT22;13725;51.170;4.442;2023-12-04T15:32:32;3.50;99.90
25923;DHT22;13725;51.170;4.442;2023-12-04T15:34:57;3.60;99.90
25923;DHT22;13725;51.170;4.442;2023-12-04T15:37:23;3.70;99.90
25923;DHT22;13725;51.170;4.442;2023-12-04T15:39:49;3.60;99.90
25923;DHT22;13725;51.170;4.442;2023-12-04T15:42:15;3.60;99.90
25923;DHT22;13725;51.170;4.442;2023-12-04T15:44:41;3.60;99.90
25923;DHT22;13725;51.170;4.442;2023-12-04T15:47:06;3.60;99.90
25923;DHT22;13725;51.170;4.442;2023-12-04T15:49:32;3.60;99.90
25923;DHT22;13725;51.170;4.442;2023-12-04T15:52:00;3.60;99.90
25923;DHT22;13725;51.170;4.442;2023-12-04T15:54:26;3.80;99.90
25923;DHT22;13725;51.170;4.442;2023-12-04T15:56:51;3.80;99.90
25923;DHT22;13725;51.170;4.442;2023-12-04T15:59:19;3.90;99.90
25923;DHT22;13725;51.170;4.442;2023-12-04T16:01:46;3.70;99.90
25923;DHT22;13725;51.170;4.442;2023-12-04T16:04:13;3.70;99.90
25923;DHT22;13725;51.170;4.442;2023-12-04T16:06:39;3.80;99.90